Accueil
METAR-TAF:

METAR-TAF

Aéroports :

Aéroport de Pampelune

Pampelune, Espagne

latitude: 42-46N, longitude: 001-38W, altitude: 459 m

Observation

Le bulletin a été fait il y a 28 minutes, à 07:30 UTC
Vent 1 kt de est/nord-est
Température 18°C
Humidité 73%
Pression 1024 hPa
Visibilité 10 km ou plus
pas de nuages en-dessous de 1500 mètres et pas de cumulonimbus.

METAR: LEPP 190730Z 06001KT CAVOK 18/13 Q1024

Heure: 09:58 (07:58 UTC)

Prévision

Le bulletin a été fait il y a 5 heures et 58 minutes, à 02:00 UTC
Prévision valable du 19 à 03 UTC au 20 à 03 UTC
Vent 9 kt de nord
Visibilité 10 km ou plus
Quelques nuages à une hauteur de 3000 ft
Temporairement
du 19 à 12 UTC au 19 à 20 UTC
Vent 15 kt de nord avec des rafales jusqu'à 25 kt

TAF: LEPP 190200Z 1903/2003 35009KT 9999 FEW030 TX29/1915Z TN13/1906Z TEMPO 1912/1920 35015G25KT

Observations et prévisions météorologiques de plus de 4000 aéroports (messages METAR et TAF).

Les stations disponibles sont représentées par des disques jaunes et rouges sur la carte.

Passer la souris dessus pour voir le nom de la station.

Cliquer dessus pour voir les observations et prévisions météorologiques.

Pour changer de carte: cliquez sur les boutons verts avec une croix noire pour zoomer, sur le bouton vert avec un tiret pour effectuer un zoom arrière, ou sur les flèches vertes pour les cartes adjacentes.


METAR-TAF: